sensor_id;sensor_type;location;lat;lon;timestamp;pressure;altitude;pressure_sealevel;temperature;humidity
79123;BME280;68526;44.600;26.032;2023-12-04T00:00:11;101213.53;;;2.62;76.13
79123;BME280;68526;44.600;26.032;2023-12-04T00:00:27;101217.78;;;2.58;76.47
79123;BME280;68526;44.600;26.032;2023-12-04T00:00:43;101222.63;;;2.56;76.42
79123;BME280;68526;44.600;26.032;2023-12-04T00:00:59;101212.88;;;2.55;76.18
79123;BME280;68526;44.600;26.032;2023-12-04T00:01:16;101217.44;;;2.55;76.54
79123;BME280;68526;44.600;26.032;2023-12-04T00:01:32;101211.47;;;2.53;76.48
79123;BME280;68526;44.600;26.032;2023-12-04T00:01:48;101214.25;;;2.58;76.19
79123;BME280;68526;44.600;26.032;2023-12-04T00:02:04;101211.53;;;2.58;76.71
79123;BME280;68526;44.600;26.032;2023-12-04T00:02:21;101217.53;;;2.60;76.27
79123;BME280;68526;44.600;26.032;2023-12-04T00:02:37;101214.81;;;2.60;76.15
79123;BME280;68526;44.600;26.032;2023-12-04T00:02:53;101221.28;;;2.59;76.43
79123;BME280;68526;44.600;26.032;2023-12-04T00:03:11;101209.41;;;2.60;76.51
79123;BME280;68526;44.600;26.032;2023-12-04T00:03:27;101219.66;;;2.58;76.72
79123;BME280;68526;44.600;26.032;2023-12-04T00:03:43;101217.22;;;2.56;76.56
79123;BME280;68526;44.600;26.032;2023-12-04T00:03:59;101205.31;;;2.57;76.78
79123;BME280;68526;44.600;26.032;2023-12-04T00:04:14;101213.44;;;2.57;76.61
79123;BME280;68526;44.600;26.032;2023-12-04T00:04:31;101215.31;;;2.57;76.57
79123;BME280;68526;44.600;26.032;2023-12-04T00:04:47;101212.88;;;2.55;76.53
79123;BME280;68526;44.600;26.032;2023-12-04T00:05:04;101211.22;;;2.54;76.93
79123;BME280;68526;44.600;26.032;2023-12-04T00:05:20;101215.31;;;2.57;77.24
79123;BME280;68526;44.600;26.032;2023-12-04T00:05:36;101225.06;;;2.58;77.15
79123;BME280;68526;44.600;26.032;2023-12-04T00:05:52;101217.22;;;2.56;77.16
79123;BME280;68526;44.600;26.032;2023-12-04T00:06:09;101222.63;;;2.56;76.89
79123;BME280;68526;44.600;26.032;2023-12-04T00:06:25;101215.78;;;2.54;77.08
79123;BME280;68526;44.600;26.032;2023-12-04T00:06:42;101221.81;;;2.56;77.17
79123;BME280;68526;44.600;26.032;2023-12-04T00:06:58;101220.97;;;2.55;77.28
79123;BME280;68526;44.600;26.032;2023-12-04T00:07:14;101188.00;;;2.41;77.18
79123;BME280;68526;44.600;26.032;2023-12-04T00:07:30;101209.91;;;2.57;77.04
79123;BME280;68526;44.600;26.032;2023-12-04T00:07:46;101221.88;;;2.61;76.80
79123;BME280;68526;44.600;26.032;2023-12-04T00:08:02;101220.22;;;2.60;76.86
79123;BME280;68526;44.600;26.032;2023-12-04T00:08:18;101220.47;;;2.58;76.71
79123;BME280;68526;44.600;26.032;2023-12-04T00:08:35;101221.28;;;2.59;76.95
79123;BME280;68526;44.600;26.032;2023-12-04T00:08:52;101218.84;;;2.57;76.89
79123;BME280;68526;44.600;26.032;2023-12-04T00:09:08;101219.09;;;2.56;77.34
79123;BME280;68526;44.600;26.032;2023-12-04T00:09:23;101221.81;;;2.56;77.31
79123;BME280;68526;44.600;26.032;2023-12-04T00:09:40;101224.97;;;2.53;77.45
79123;BME280;68526;44.600;26.032;2023-12-04T00:09:56;101223.91;;;2.54;77.49
79123;BME280;68526;44.600;26.032;2023-12-04T00:10:12;101224.72;;;2.54;77.53
79123;BME280;68526;44.600;26.032;2023-12-04T00:10:29;101222.84;;;2.55;77.62
79123;BME280;68526;44.600;26.032;2023-12-04T00:10:45;101220.72;;;2.57;77.30
79123;BME280;68526;44.600;26.032;2023-12-04T00:11:01;101223.44;;;2.57;77.65
79123;BME280;68526;44.600;26.032;2023-12-04T00:11:16;101232.94;;;2.59;77.31
79123;BME280;68526;44.600;26.032;2023-12-04T00:11:32;101230.22;;;2.59;77.37
79123;BME280;68526;44.600;26.032;2023-12-04T00:11:48;101224.72;;;2.54;77.58
79123;BME280;68526;44.600;26.032;2023-12-04T00:12:05;101224.50;;;2.56;77.78
79123;BME280;68526;44.600;26.032;2023-12-04T00:12:21;101228.03;;;2.56;77.58
79123;BME280;68526;44.600;26.032;2023-12-04T00:12:37;101231.81;;;2.55;77.46
79123;BME280;68526;44.600;26.032;2023-12-04T00:12:53;101226.41;;;2.55;77.92
79123;BME280;68526;44.600;26.032;2023-12-04T00:13:09;101229.31;;;2.54;77.63
79123;BME280;68526;44.600;26.032;2023-12-04T00:13:25;101223.34;;;2.52;77.73
79123;BME280;68526;44.600;26.032;2023-12-04T00:13:41;101231.47;;;2.52;77.77
79123;BME280;68526;44.600;26.032;2023-12-04T00:13:57;101225.22;;;2.51;77.87
79123;BME280;68526;44.600;26.032;2023-12-04T00:14:14;101228.19;;;2.50;78.07
79123;BME280;68526;44.600;26.032;2023-12-04T00:14:30;101225.72;;;2.48;77.81
79123;BME280;68526;44.600;26.032;2023-12-04T00:14:46;101230.91;;;2.50;78.32
79123;BME280;68526;44.600;26.032;2023-12-04T00:15:02;101229.47;;;2.47;78.46
79123;BME280;68526;44.600;26.032;2023-12-04T00:15:19;101235.16;;;2.46;78.38
79123;BME280;68526;44.600;26.032;2023-12-04T00:15:35;101233.00;;;2.48;78.10
79123;BME280;68526;44.600;26.032;2023-12-04T00:15:52;101230.31;;;2.48;78.25
79123;BME280;68526;44.600;26.032;2023-12-04T00:16:09;101231.94;;;2.49;78.04
79123;BME280;68526;44.600;26.032;2023-12-04T00:16:25;101240.91;;;2.49;78.63
79123;BME280;68526;44.600;26.032;2023-12-04T00:16:41;101229.00;;;2.50;78.30
79123;BME280;68526;44.600;26.032;2023-12-04T00:16:57;101238.75;;;2.51;78.30
79123;BME280;68526;44.600;26.032;2023-12-04T00:17:13;101229.81;;;2.51;78.48
79123;BME280;68526;44.600;26.032;2023-12-04T00:17:29;101234.72;;;2.54;78.53
79123;BME280;68526;44.600;26.032;2023-12-04T00:17:44;101234.97;;;2.52;78.61
79123;BME280;68526;44.600;26.032;2023-12-04T00:18:02;101239.31;;;2.53;78.29
79123;BME280;68526;44.600;26.032;2023-12-04T00:18:19;101235.31;;;2.56;78.49
79123;BME280;68526;44.600;26.032;2023-12-04T00:18:35;101235.31;;;2.56;78.48
79123;BME280;68526;44.600;26.032;2023-12-04T00:18:51;101239.56;;;2.52;78.69
79123;BME280;68526;44.600;26.032;2023-12-04T00:19:06;101230.66;;;2.51;78.26
79123;BME280;68526;44.600;26.032;2023-12-04T00:19:22;101243.34;;;2.51;78.35
79123;BME280;68526;44.600;26.032;2023-12-04T00:19:38;101227.94;;;2.51;78.80
79123;BME280;68526;44.600;26.032;2023-12-04T00:19:55;101234.16;;;2.52;78.52
79123;BME280;68526;44.600;26.032;2023-12-04T00:20:11;101223.50;;;2.45;78.26
79123;BME280;68526;44.600;26.032;2023-12-04T00:20:27;101237.94;;;2.51;78.48
79123;BME280;68526;44.600;26.032;2023-12-04T00:20:43;101245.81;;;2.52;78.11
79123;BME280;68526;44.600;26.032;2023-12-04T00:20:59;101233.34;;;2.51;78.49
79123;BME280;68526;44.600;26.032;2023-12-04T00:21:15;101242.75;;;2.49;78.40
79123;BME280;68526;44.600;26.032;2023-12-04T00:21:31;101238.41;;;2.48;78.70
79123;BME280;68526;44.600;26.032;2023-12-04T00:21:47;101244.66;;;2.48;78.87
79123;BME280;68526;44.600;26.032;2023-12-04T00:22:03;101236.78;;;2.47;78.55
79123;BME280;68526;44.600;26.032;2023-12-04T00:22:19;101240.31;;;2.47;78.67
79123;BME280;68526;44.600;26.032;2023-12-04T00:22:35;101235.50;;;2.49;78.43
79123;BME280;68526;44.600;26.032;2023-12-04T00:22:51;101247.13;;;2.50;78.69
79123;BME280;68526;44.600;26.032;2023-12-04T00:23:07;101241.13;;;2.48;78.54
79123;BME280;68526;44.600;26.032;2023-12-04T00:23:23;101247.84;;;2.45;78.72
79123;BME280;68526;44.600;26.032;2023-12-04T00:23:40;101244.31;;;2.45;78.65
79123;BME280;68526;44.600;26.032;2023-12-04T00:23:56;101244.91;;;2.47;78.88
79123;BME280;68526;44.600;26.032;2023-12-04T00:24:12;101244.31;;;2.45;78.60
79123;BME280;68526;44.600;26.032;2023-12-04T00:24:28;101242.44;;;2.45;78.53
79123;BME280;68526;44.600;26.032;2023-12-04T00:24:44;101245.97;;;2.46;78.32
79123;BME280;68526;44.600;26.032;2023-12-04T00:25:00;101244.06;;;2.46;78.85
79123;BME280;68526;44.600;26.032;2023-12-04T00:25:17;101235.31;;;2.39;78.61
79123;BME280;68526;44.600;26.032;2023-12-04T00:25:33;101242.44;;;2.45;78.69
79123;BME280;68526;44.600;26.032;2023-12-04T00:25:49;101251.13;;;2.47;78.34
79123;BME280;68526;44.600;26.032;2023-12-04T00:26:06;101248.66;;;2.46;78.59
79123;BME280;68526;44.600;26.032;2023-12-04T00:26:22;101251.13;;;2.47;78.43
79123;BME280;68526;44.600;26.032;2023-12-04T00:26:37;101247.34;;;2.48;78.89
79123;BME280;68526;44.600;26.032;2023-12-04T00:26:53;101248.41;;;2.47;78.82
79123;BME280;68526;44.600;26.032;2023-12-04T00:27:10;101250.56;;;2.45;78.77
79123;BME280;68526;44.600;26.032;2023-12-04T00:27:27;101247.34;;;2.48;79.03
79123;BME280;68526;44.600;26.032;2023-12-04T00:27:43;101242.75;;;2.49;78.42
79123;BME280;68526;44.600;26.032;2023-12-04T00:27:59;101251.72;;;2.49;78.60
79123;BME280;68526;44.600;26.032;2023-12-04T00:28:15;101247.94;;;2.50;78.33
79123;BME280;68526;44.600;26.032;2023-12-04T00:28:31;101257.34;;;2.48;78.44
79123;BME280;68526;44.600;26.032;2023-12-04T00:28:47;101253.81;;;2.47;77.93
79123;BME280;68526;44.600;26.032;2023-12-04T00:29:03;101251.38;;;2.46;77.47
79123;BME280;68526;44.600;26.032;2023-12-04T00:29:20;101258.06;;;2.43;77.00
79123;BME280;68526;44.600;26.032;2023-12-04T00:29:36;101253.97;;;2.40;76.52
79123;BME280;68526;44.600;26.032;2023-12-04T00:29:52;101253.97;;;2.40;76.39
79123;BME280;68526;44.600;26.032;2023-12-04T00:30:08;101254.81;;;2.41;76.31
79123;BME280;68526;44.600;26.032;2023-12-04T00:30:25;101253.16;;;2.40;76.26
79123;BME280;68526;44.600;26.032;2023-12-04T00:30:41;101251.28;;;2.40;76.28
79123;BME280;68526;44.600;26.032;2023-12-04T00:30:57;101255.88;;;2.40;76.42
79123;BME280;68526;44.600;26.032;2023-12-04T00:31:14;101233.22;;;2.29;76.50
79123;BME280;68526;44.600;26.032;2023-12-04T00:31:29;101257.75;;;2.39;76.37
79123;BME280;68526;44.600;26.032;2023-12-04T00:31:46;101256.13;;;2.38;76.48
79123;BME280;68526;44.600;26.032;2023-12-04T00:32:03;101258.22;;;2.36;76.53
79123;BME280;68526;44.600;26.032;2023-12-04T00:32:19;101257.19;;;2.37;76.53
79123;BME280;68526;44.600;26.032;2023-12-04T00:32:35;101260.94;;;2.36;76.67
79123;BME280;68526;44.600;26.032;2023-12-04T00:32:51;101252.81;;;2.36;76.31
79123;BME280;68526;44.600;26.032;2023-12-04T00:33:07;101256.34;;;2.37;76.20
79123;BME280;68526;44.600;26.032;2023-12-04T00:33:25;101258.22;;;2.36;76.25
79123;BME280;68526;44.600;26.032;2023-12-04T00:33:41;101260.13;;;2.36;76.14
79123;BME280;68526;44.600;26.032;2023-12-04T00:33:57;101265.31;;;2.37;76.44
79123;BME280;68526;44.600;26.032;2023-12-04T00:34:12;101255.53;;;2.36;75.92
79123;BME280;68526;44.600;26.032;2023-12-04T00:34:28;101264.13;;;2.33;76.15
79123;BME280;68526;44.600;26.032;2023-12-04T00:34:45;101253.31;;;2.33;75.93
79123;BME280;68526;44.600;26.032;2023-12-04T00:35:01;101262.00;;;2.35;76.16
79123;BME280;68526;44.600;26.032;2023-12-04T00:35:17;101256.03;;;2.33;75.86
79123;BME280;68526;44.600;26.032;2023-12-04T00:35:33;101262.81;;;2.36;75.90
79123;BME280;68526;44.600;26.032;2023-12-04T00:35:49;101263.63;;;2.36;75.80
79123;BME280;68526;44.600;26.032;2023-12-04T00:36:05;101252.00;;;2.36;76.08
79123;BME280;68526;44.600;26.032;2023-12-04T00:36:21;101262.81;;;2.36;75.81
79123;BME280;68526;44.600;26.032;2023-12-04T00:36:37;101262.00;;;2.35;75.89
79123;BME280;68526;44.600;26.032;2023-12-04T00:36:54;101252.00;;;2.36;75.74
79123;BME280;68526;44.600;26.032;2023-12-04T00:37:10;101253.41;;;2.38;75.68
79123;BME280;68526;44.600;26.032;2023-12-04T00:37:26;101261.69;;;2.32;75.80
79123;BME280;68526;44.600;26.032;2023-12-04T00:37:42;101261.19;;;2.35;75.57
79123;BME280;68526;44.600;26.032;2023-12-04T00:37:58;101264.97;;;2.34;75.93
79123;BME280;68526;44.600;26.032;2023-12-04T00:38:14;101264.59;;;2.30;75.74
79123;BME280;68526;44.600;26.032;2023-12-04T00:38:31;101263.31;;;2.33;75.88
79123;BME280;68526;44.600;26.032;2023-12-04T00:38:47;101260.63;;;2.33;75.34
79123;BME280;68526;44.600;26.032;2023-12-04T00:39:03;101259.56;;;2.34;75.80
79123;BME280;68526;44.600;26.032;2023-12-04T00:39:19;101259.19;;;2.30;75.73
79123;BME280;68526;44.600;26.032;2023-12-04T00:39:35;101263.31;;;2.33;75.93
79123;BME280;68526;44.600;26.032;2023-12-04T00:39:51;101260.88;;;2.31;75.71
79123;BME280;68526;44.600;26.032;2023-12-04T00:40:07;101262.72;;;2.31;75.87
79123;BME280;68526;44.600;26.032;2023-12-04T00:40:23;101268.47;;;2.34;75.69
79123;BME280;68526;44.600;26.032;2023-12-04T00:40:40;101265.22;;;2.32;75.85
79123;BME280;68526;44.600;26.032;2023-12-04T00:40:56;101267.09;;;2.32;75.41
79123;BME280;68526;44.600;26.032;2023-12-04T00:41:12;101268.13;;;2.31;75.62
79123;BME280;68526;44.600;26.032;2023-12-04T00:41:28;101271.91;;;2.30;75.29
79123;BME280;68526;44.600;26.032;2023-12-04T00:41:44;101268.63;;;2.28;76.06
79123;BME280;68526;44.600;26.032;2023-12-04T00:42:00;101269.69;;;2.27;75.59
79123;BME280;68526;44.600;26.032;2023-12-04T00:42:17;101273.47;;;2.26;75.87
79123;BME280;68526;44.600;26.032;2023-12-04T00:42:33;101272.88;;;2.24;75.46
79123;BME280;68526;44.600;26.032;2023-12-04T00:42:49;101265.56;;;2.24;76.16
79123;BME280;68526;44.600;26.032;2023-12-04T00:43:05;101268.28;;;2.24;75.76
79123;BME280;68526;44.600;26.032;2023-12-04T00:43:21;101275.56;;;2.24;76.14
79123;BME280;68526;44.600;26.032;2023-12-04T00:43:36;101277.47;;;2.23;75.69
79123;BME280;68526;44.600;26.032;2023-12-04T00:43:52;101269.03;;;2.20;75.32
79123;BME280;68526;44.600;26.032;2023-12-04T00:44:08;101271.00;;;2.24;75.41
79123;BME280;68526;44.600;26.032;2023-12-04T00:44:25;101275.31;;;2.25;75.51
79123;BME280;68526;44.600;26.032;2023-12-04T00:44:41;101265.56;;;2.24;75.26
79123;BME280;68526;44.600;26.032;2023-12-04T00:44:57;101271.34;;;2.28;75.57
79123;BME280;68526;44.600;26.032;2023-12-04T00:45:13;101276.66;;;2.23;75.32
79123;BME280;68526;44.600;26.032;2023-12-04T00:45:29;101279.84;;;2.20;75.44
79123;BME280;68526;44.600;26.032;2023-12-04T00:45:45;101269.75;;;2.15;75.20
79123;BME280;68526;44.600;26.032;2023-12-04T00:46:01;101271.84;;;2.13;75.61
79123;BME280;68526;44.600;26.032;2023-12-04T00:46:17;101268.94;;;2.14;75.59
79123;BME280;68526;44.600;26.032;2023-12-04T00:46:34;101277.38;;;2.18;75.66
79123;BME280;68526;44.600;26.032;2023-12-04T00:46:49;101273.84;;;2.18;75.45
79123;BME280;68526;44.600;26.032;2023-12-04T00:47:05;101272.22;;;2.17;75.66
79123;BME280;68526;44.600;26.032;2023-12-04T00:47:21;101271.97;;;2.18;75.63
79123;BME280;68526;44.600;26.032;2023-12-04T00:47:37;101275.00;;;2.22;75.33
79123;BME280;68526;44.600;26.032;2023-12-04T00:47:53;101273.59;;;2.19;75.52
79123;BME280;68526;44.600;26.032;2023-12-04T00:48:09;101285.72;;;2.17;75.82
79123;BME280;68526;44.600;26.032;2023-12-04T00:48:27;101277.03;;;2.14;75.62
79123;BME280;68526;44.600;26.032;2023-12-04T00:48:43;101278.69;;;2.16;75.80
79123;BME280;68526;44.600;26.032;2023-12-04T00:49:01;101282.19;;;2.16;75.78
79123;BME280;68526;44.600;26.032;2023-12-04T00:49:17;101275.16;;;2.15;75.39
79123;BME280;68526;44.600;26.032;2023-12-04T00:49:33;101269.16;;;2.13;75.57
79123;BME280;68526;44.600;26.032;2023-12-04T00:49:49;101246.59;;;1.91;75.19
79123;BME280;68526;44.600;26.032;2023-12-04T00:50:05;101278.94;;;2.14;75.31
79123;BME280;68526;44.600;26.032;2023-12-04T00:50:21;101276.22;;;2.14;75.07
79123;BME280;68526;44.600;26.032;2023-12-04T00:50:38;101274.81;;;2.11;74.89
79123;BME280;68526;44.600;26.032;2023-12-04T00:50:55;101272.91;;;2.12;75.11
79123;BME280;68526;44.600;26.032;2023-12-04T00:51:11;101275.88;;;2.10;74.87
79123;BME280;68526;44.600;26.032;2023-12-04T00:51:27;101276.13;;;2.09;75.17
79123;BME280;68526;44.600;26.032;2023-12-04T00:51:42;101280.47;;;2.10;75.11
79123;BME280;68526;44.600;26.032;2023-12-04T00:51:58;101281.28;;;2.10;75.19
79123;BME280;68526;44.600;26.032;2023-12-04T00:52:14;101276.59;;;2.06;75.00
79123;BME280;68526;44.600;26.032;2023-12-04T00:52:31;101279.28;;;2.06;75.49
79123;BME280;68526;44.600;26.032;2023-12-04T00:52:47;101279.03;;;2.07;75.44
79123;BME280;68526;44.600;26.032;2023-12-04T00:53:03;101279.66;;;2.09;75.21
79123;BME280;68526;44.600;26.032;2023-12-04T00:53:19;101278.22;;;2.07;75.52
79123;BME280;68526;44.600;26.032;2023-12-04T00:53:35;101287.75;;;2.09;75.28
79123;BME280;68526;44.600;26.032;2023-12-04T00:53:51;101278.00;;;2.08;75.10
79123;BME280;68526;44.600;26.032;2023-12-04T00:54:07;101283.41;;;2.08;75.24
79123;BME280;68526;44.600;26.032;2023-12-04T00:54:23;101287.75;;;2.09;75.49
79123;BME280;68526;44.600;26.032;2023-12-04T00:54:40;101280.72;;;2.08;75.41
79123;BME280;68526;44.600;26.032;2023-12-04T00:54:56;101283.41;;;2.08;75.18
79123;BME280;68526;44.600;26.032;2023-12-04T00:55:12;101287.41;;;2.06;75.36
79123;BME280;68526;44.600;26.032;2023-12-04T00:55:28;101294.13;;;2.03;75.54
79123;BME280;68526;44.600;26.032;2023-12-04T00:55:44;101285.75;;;2.05;75.08
79123;BME280;68526;44.600;26.032;2023-12-04T00:56:00;101290.09;;;2.06;75.34
79123;BME280;68526;44.600;26.032;2023-12-04T00:56:16;101284.22;;;2.09;75.28
79123;BME280;68526;44.600;26.032;2023-12-04T00:56:34;101288.81;;;2.08;75.58
79123;BME280;68526;44.600;26.032;2023-12-04T00:56:50;101290.22;;;2.11;75.37
79123;BME280;68526;44.600;26.032;2023-12-04T00:57:05;101288.06;;;2.13;75.34
79123;BME280;68526;44.600;26.032;2023-12-04T00:57:21;101294.78;;;2.10;75.26
79123;BME280;68526;44.600;26.032;2023-12-04T00:57:37;101291.75;;;2.07;75.48
79123;BME280;68526;44.600;26.032;2023-12-04T00:57:53;101289.53;;;2.04;75.60
79123;BME280;68526;44.600;26.032;2023-12-04T00:58:09;101292.34;;;2.09;75.29
79123;BME280;68526;44.600;26.032;2023-12-04T00:58:26;101296.69;;;2.10;75.38
79123;BME280;68526;44.600;26.032;2023-12-04T00:58:42;101293.16;;;2.09;75.75
79123;BME280;68526;44.600;26.032;2023-12-04T00:58:58;101292.34;;;2.09;75.58
79123;BME280;68526;44.600;26.032;2023-12-04T00:59:14;101290.91;;;2.06;75.68
79123;BME280;68526;44.600;26.032;2023-12-04T00:59:30;101292.09;;;2.10;75.71
79123;BME280;68526;44.600;26.032;2023-12-04T00:59:46;101294.22;;;2.08;75.79
79123;BME280;68526;44.600;26.032;2023-12-04T01:00:04;101295.25;;;2.07;75.34
79123;BME280;68526;44.600;26.032;2023-12-04T01:00:20;101293.88;;;2.05;75.00
79123;BME280;68526;44.600;26.032;2023-12-04T01:00:36;101283.88;;;2.05;74.90
79123;BME280;68526;44.600;26.032;2023-12-04T01:00:52;101288.47;;;2.05;75.27
79123;BME280;68526;44.600;26.032;2023-12-04T01:01:08;101288.00;;;2.08;75.40
79123;BME280;68526;44.600;26.032;2023-12-04T01:01:24;101286.59;;;2.05;75.23
79123;BME280;68526;44.600;26.032;2023-12-04T01:01:41;101291.41;;;2.03;74.93
79123;BME280;68526;44.600;26.032;2023-12-04T01:01:57;101291.31;;;1.98;74.45
79123;BME280;68526;44.600;26.032;2023-12-04T01:02:13;101290.59;;;2.03;75.07
79123;BME280;68526;44.600;26.032;2023-12-04T01:02:29;101291.66;;;2.02;74.80
79123;BME280;68526;44.600;26.032;2023-12-04T01:02:45;101284.38;;;2.02;74.83
79123;BME280;68526;44.600;26.032;2023-12-04T01:03:01;101285.41;;;2.01;74.73
79123;BME280;68526;44.600;26.032;2023-12-04T01:03:18;101295.19;;;2.02;74.97
79123;BME280;68526;44.600;26.032;2023-12-04T01:03:35;101297.28;;;2.00;74.73
79123;BME280;68526;44.600;26.032;2023-12-04T01:03:53;101295.41;;;2.01;74.83
79123;BME280;68526;44.600;26.032;2023-12-04T01:04:09;101292.13;;;1.99;74.66
79123;BME280;68526;44.600;26.032;2023-12-04T01:04:24;101292.13;;;1.99;74.93
79123;BME280;68526;44.600;26.032;2023-12-04T01:04:41;101290.50;;;1.98;74.91
79123;BME280;68526;44.600;26.032;2023-12-04T01:04:58;101295.66;;;1.99;74.96
79123;BME280;68526;44.600;26.032;2023-12-04T01:05:14;101291.56;;;1.97;75.17
79123;BME280;68526;44.600;26.032;2023-12-04T01:05:29;101291.31;;;1.98;74.83
79123;BME280;68526;44.600;26.032;2023-12-04T01:05:45;101281.56;;;1.97;74.99
79123;BME280;68526;44.600;26.032;2023-12-04T01:06:01;101304.00;;;1.98;74.81
79123;BME280;68526;44.600;26.032;2023-12-04T01:06:21;101298.59;;;1.98;74.97
79123;BME280;68526;44.600;26.032;2023-12-04T01:06:38;101296.22;;;2.01;75.28
79123;BME280;68526;44.600;26.032;2023-12-04T01:06:55;101296.47;;;2.00;75.30
79123;BME280;68526;44.600;26.032;2023-12-04T01:07:10;101293.78;;;2.00;75.09
79123;BME280;68526;44.600;26.032;2023-12-04T01:07:27;101300.00;;;2.00;75.28
79123;BME280;68526;44.600;26.032;2023-12-04T01:07:43;101295.41;;;2.01;75.47
79123;BME280;68526;44.600;26.032;2023-12-04T01:07:59;101302.47;;;2.02;75.34
79123;BME280;68526;44.600;26.032;2023-12-04T01:08:15;101300.81;;;2.01;75.15
79123;BME280;68526;44.600;26.032;2023-12-04T01:08:31;101303.50;;;2.01;75.39
79123;BME280;68526;44.600;26.032;2023-12-04T01:08:46;101301.41;;;2.03;75.31
79123;BME280;68526;44.600;26.032;2023-12-04T01:09:03;101297.41;;;2.05;75.42
79123;BME280;68526;44.600;26.032;2023-12-04T01:09:19;101297.41;;;2.05;75.00
79123;BME280;68526;44.600;26.032;2023-12-04T01:09:39;101297.41;;;2.05;75.21
79123;BME280;68526;44.600;26.032;2023-12-04T01:09:55;101296.56;;;2.05;75.18
79123;BME280;68526;44.600;26.032;2023-12-04T01:10:11;101303.03;;;2.04;75.55
79123;BME280;68526;44.600;26.032;2023-12-04T01:10:27;101299.53;;;2.03;75.47
79123;BME280;68526;44.600;26.032;2023-12-04T01:10:43;101298.94;;;2.01;75.37
79123;BME280;68526;44.600;26.032;2023-12-04T01:10:59;101296.22;;;2.01;75.69
79123;BME280;68526;44.600;26.032;2023-12-04T01:11:15;101297.88;;;2.02;75.33
79123;BME280;68526;44.600;26.032;2023-12-04T01:11:31;101290.25;;;1.99;75.76
79123;BME280;68526;44.600;26.032;2023-12-04T01:11:47;101301.41;;;2.03;75.42
79123;BME280;68526;44.600;26.032;2023-12-04T01:12:04;101300.00;;;2.00;75.44
79123;BME280;68526;44.600;26.032;2023-12-04T01:12:20;101300.00;;;2.00;75.38
79123;BME280;68526;44.600;26.032;2023-12-04T01:12:36;101307.03;;;2.01;75.52
79123;BME280;68526;44.600;26.032;2023-12-04T01:12:52;101308.59;;;1.97;75.64
79123;BME280;68526;44.600;26.032;2023-12-04T01:13:08;101302.38;;;1.97;75.51
79123;BME280;68526;44.600;26.032;2023-12-04T01:13:24;101302.38;;;1.97;75.62
79123;BME280;68526;44.600;26.032;2023-12-04T01:13:40;101304.56;;;2.00;75.34
79123;BME280;68526;44.600;26.032;2023-12-04T01:13:57;101298.84;;;1.96;75.78
79123;BME280;68526;44.600;26.032;2023-12-04T01:14:13;101309.16;;;1.99;75.79
79123;BME280;68526;44.600;26.032;2023-12-04T01:14:29;101303.44;;;1.96;75.80
79123;BME280;68526;44.600;26.032;2023-12-04T01:14:45;101303.19;;;1.97;75.87
79123;BME280;68526;44.600;26.032;2023-12-04T01:15:01;101313.19;;;1.97;75.38
79123;BME280;68526;44.600;26.032;2023-12-04T01:15:17;101304.47;;;1.95;75.66
79123;BME280;68526;44.600;26.032;2023-12-04T01:15:33;101305.53;;;1.94;75.37
79123;BME280;68526;44.600;26.032;2023-12-04T01:15:49;101314.25;;;1.96;75.33
79123;BME280;68526;44.600;26.032;2023-12-04T01:16:07;101305.78;;;1.92;75.40
79123;BME280;68526;44.600;26.032;2023-12-04T01:16:23;101311.44;;;1.91;75.54
79123;BME280;68526;44.600;26.032;2023-12-04T01:16:39;101311.44;;;1.91;75.72
79123;BME280;68526;44.600;26.032;2023-12-04T01:16:55;101297.31;;;1.88;75.14
79123;BME280;68526;44.600;26.032;2023-12-04T01:17:11;101300.03;;;1.88;75.32
79123;BME280;68526;44.600;26.032;2023-12-04T01:17:27;101304.16;;;1.91;75.59
79123;BME280;68526;44.600;26.032;2023-12-04T01:17:44;101296.03;;;1.91;75.27
79123;BME280;68526;44.600;26.032;2023-12-04T01:18:00;101306.03;;;1.91;75.53
79123;BME280;68526;44.600;26.032;2023-12-04T01:18:16;101288.06;;;1.84;75.79
79123;BME280;68526;44.600;26.032;2023-12-04T01:18:32;101293.81;;;1.88;75.71
79123;BME280;68526;44.600;26.032;2023-12-04T01:18:50;101304.84;;;1.86;75.47
79123;BME280;68526;44.600;26.032;2023-12-04T01:19:05;101299.22;;;1.88;75.36
79123;BME280;68526;44.600;26.032;2023-12-04T01:19:21;101276.22;;;1.74;75.04
79123;BME280;68526;44.600;26.032;2023-12-04T01:19:38;101299.69;;;1.85;75.74
79123;BME280;68526;44.600;26.032;2023-12-04T01:19:54;101303.47;;;1.84;75.25
79123;BME280;68526;44.600;26.032;2023-12-04T01:20:10;101300.41;;;1.80;75.68
79123;BME280;68526;44.600;26.032;2023-12-04T01:20:26;101310.72;;;1.83;75.72
79123;BME280;68526;44.600;26.032;2023-12-04T01:20:42;101304.84;;;1.86;75.30
79123;BME280;68526;44.600;26.032;2023-12-04T01:20:58;101303.22;;;1.85;75.71
79123;BME280;68526;44.600;26.032;2023-12-04T01:21:14;101299.91;;;1.83;75.74
79123;BME280;68526;44.600;26.032;2023-12-04T01:21:30;101306.38;;;1.82;75.18
79123;BME280;68526;44.600;26.032;2023-12-04T01:21:47;101298.28;;;1.82;75.39
79123;BME280;68526;44.600;26.032;2023-12-04T01:22:03;101305.91;;;1.85;75.77
79123;BME280;68526;44.600;26.032;2023-12-04T01:22:19;101312.84;;;1.81;75.70
79123;BME280;68526;44.600;26.032;2023-12-04T01:22:35;101307.69;;;1.80;75.09
79123;BME280;68526;44.600;26.032;2023-12-04T01:22:51;101306.88;;;1.79;75.40
79123;BME280;68526;44.600;26.032;2023-12-04T01:23:07;101308.75;;;1.79;75.92
79123;BME280;68526;44.600;26.032;2023-12-04T01:23:23;101310.41;;;1.80;75.49
79123;BME280;68526;44.600;26.032;2023-12-04T01:23:40;101311.78;;;1.82;75.56
79123;BME280;68526;44.600;26.032;2023-12-04T01:23:56;101305.56;;;1.82;75.67
79123;BME280;68526;44.600;26.032;2023-12-04T01:24:11;101307.19;;;1.83;75.42
79123;BME280;68526;44.600;26.032;2023-12-04T01:24:27;101308.88;;;1.84;75.34
79123;BME280;68526;44.600;26.032;2023-12-04T01:24:43;101302.63;;;1.83;75.71